createdAt,value
2023-03-27T00:01:10.513Z,70.08
2023-03-27T00:03:38.240Z,70.44
2023-03-27T00:06:15.931Z,70.12
2023-03-27T00:08:48.622Z,69.88
2023-03-27T00:11:16.025Z,70.03
2023-03-27T00:13:50.481Z,70.05
2023-03-27T00:16:23.887Z,69.54
2023-03-27T00:18:50.880Z,70.23
2023-03-27T00:21:17.717Z,69.86
2023-03-27T00:23:44.939Z,69.76
2023-03-27T00:26:12.044Z,69.80
2023-03-27T00:28:39.332Z,69.81
2023-03-27T00:31:10.959Z,69.27
2023-03-27T00:33:37.987Z,69.53
2023-03-27T00:36:05.186Z,69.71
2023-03-27T00:38:32.583Z,70.15
2023-03-27T00:41:00.091Z,69.70
2023-03-27T00:43:36.128Z,69.65
2023-03-27T00:46:16.856Z,69.34
2023-03-27T00:48:48.072Z,68.68
2023-03-27T00:51:16.352Z,69.42
2023-03-27T00:53:44.205Z,69.02
2023-03-27T00:56:11.484Z,68.60
2023-03-27T00:58:46.545Z,68.90
2023-03-27T01:01:16.183Z,68.69
2023-03-27T01:03:46.772Z,68.93
2023-03-27T01:06:16.301Z,68.10
2023-03-27T01:08:46.094Z,68.71
2023-03-27T01:11:28.274Z,68.63
2023-03-27T01:14:13.549Z,68.50
2023-03-27T01:16:55.905Z,68.09
2023-03-27T01:19:23.080Z,67.63
2023-03-27T01:22:14.363Z,67.26
2023-03-27T01:25:15.449Z,67.13
2023-03-27T01:28:16.285Z,66.52
2023-03-27T01:30:52.477Z,65.75
2023-03-27T01:33:41.188Z,65.65
2023-03-27T01:36:26.535Z,65.32
2023-03-27T01:39:09.210Z,65.04
2023-03-27T01:41:48.019Z,64.62
2023-03-27T01:44:24.834Z,64.82
2023-03-27T01:47:23.311Z,65.14
2023-03-27T01:50:21.618Z,65.12
2023-03-27T01:53:15.408Z,64.90
2023-03-27T01:55:50.435Z,64.96
2023-03-27T01:58:22.469Z,64.54
2023-03-27T02:00:54.685Z,64.22
2023-03-27T02:03:29.945Z,63.83
2023-03-27T02:06:06.115Z,64.07
2023-03-27T02:08:38.050Z,63.96
2023-03-27T02:11:14.866Z,64.03
2023-03-27T02:13:54.221Z,63.76
2023-03-27T02:16:32.956Z,64.29
2023-03-27T02:19:04.632Z,63.86
2023-03-27T02:21:32.570Z,64.29
2023-03-27T02:24:02.687Z,64.17
2023-03-27T02:26:30.404Z,65.03
2023-03-27T02:29:36.113Z,65.24
2023-03-27T02:32:32.689Z,65.31
2023-03-27T02:35:11.763Z,65.52
2023-03-27T02:38:22.721Z,65.23
2023-03-27T02:40:53.320Z,65.68
2023-03-27T02:44:01.366Z,65.91
2023-03-27T02:47:09.715Z,66.23
2023-03-27T02:49:52.819Z,66.43
2023-03-27T02:52:42.100Z,66.62
2023-03-27T02:55:17.357Z,66.66
2023-03-27T02:57:51.557Z,66.30
2023-03-27T03:00:46.444Z,67.09
2023-03-27T03:03:39.093Z,66.85
2023-03-27T03:06:26.222Z,66.12
2023-03-27T03:08:53.220Z,65.75
2023-03-27T03:11:22.054Z,65.87
2023-03-27T03:13:49.027Z,65.56
2023-03-27T03:16:15.965Z,65.69
2023-03-27T03:18:42.925Z,64.90
2023-03-27T03:21:09.728Z,64.63
2023-03-27T03:23:36.857Z,64.71
2023-03-27T03:26:04.144Z,64.63
2023-03-27T03:28:43.116Z,64.58
2023-03-27T03:31:29.729Z,63.84
2023-03-27T03:34:00.384Z,64.26
2023-03-27T03:36:27.354Z,64.15
2023-03-27T03:38:54.226Z,63.70
2023-03-27T03:41:21.189Z,63.97
2023-03-27T03:43:48.256Z,63.62
2023-03-27T03:46:15.330Z,63.79
2023-03-27T03:48:42.243Z,63.97
2023-03-27T03:51:09.382Z,63.27
2023-03-27T03:53:36.290Z,63.46
2023-03-27T03:56:03.465Z,63.43
2023-03-27T03:58:34.513Z,63.36
2023-03-27T04:01:05.276Z,62.77
2023-03-27T04:03:49.025Z,63.11
2023-03-27T04:06:17.405Z,62.94
2023-03-27T04:08:47.645Z,62.53
2023-03-27T04:11:49.690Z,62.63
2023-03-27T04:14:43.453Z,62.86
2023-03-27T04:17:30.348Z,62.57
2023-03-27T04:19:58.152Z,61.90
2023-03-27T04:22:25.540Z,62.01
2023-03-27T04:24:53.031Z,61.96
2023-03-27T04:27:22.235Z,61.44
2023-03-27T04:29:58.571Z,60.90
2023-03-27T04:32:31.515Z,61.18
2023-03-27T04:35:20.243Z,60.06
2023-03-27T04:37:57.418Z,59.84
2023-03-27T04:40:41.888Z,59.37
2023-03-27T04:43:08.908Z,59.53
2023-03-27T04:45:35.735Z,59.49
2023-03-27T04:48:04.528Z,59.14
2023-03-27T04:50:32.499Z,58.80
2023-03-27T04:53:02.119Z,58.08
2023-03-27T04:55:36.140Z,57.88
2023-03-27T04:58:06.795Z,59.23
2023-03-27T05:00:35.285Z,59.20
2023-03-27T05:03:31.228Z,58.70
2023-03-27T05:06:05.017Z,58.96
2023-03-27T05:08:32.382Z,59.33
2023-03-27T05:10:59.478Z,59.26
2023-03-27T05:13:27.419Z,58.84
2023-03-27T05:15:54.560Z,58.72
2023-03-27T05:18:24.239Z,58.69
2023-03-27T05:20:51.199Z,59.38
2023-03-27T05:23:18.247Z,59.22
2023-03-27T05:26:00.165Z,59.41
2023-03-27T05:28:44.148Z,59.35
2023-03-27T05:31:12.412Z,59.33
2023-03-27T05:33:54.976Z,59.12
2023-03-27T05:36:22.216Z,59.28
2023-03-27T05:38:49.242Z,59.18
2023-03-27T05:41:28.247Z,57.96
2023-03-27T05:43:55.440Z,57.60
2023-03-27T05:46:22.863Z,57.67
2023-03-27T05:48:55.455Z,58.12
2023-03-27T05:51:23.611Z,57.05
2023-03-27T05:53:50.486Z,57.19
2023-03-27T05:56:23.530Z,57.01
2023-03-27T05:58:59.432Z,57.67
2023-03-27T06:01:27.564Z,57.91
2023-03-27T06:03:56.806Z,57.63
2023-03-27T06:06:46.960Z,57.85
2023-03-27T06:09:13.924Z,57.71
2023-03-27T06:11:48.389Z,57.37
2023-03-27T06:14:15.627Z,57.48
2023-03-27T06:17:02.443Z,56.42
2023-03-27T06:19:41.654Z,56.64
2023-03-27T06:22:09.021Z,56.50
2023-03-27T06:24:38.319Z,56.17
2023-03-27T06:27:05.377Z,55.44
2023-03-27T06:29:40.833Z,54.86
2023-03-27T06:32:08.167Z,54.97
2023-03-27T06:34:39.872Z,55.00
2023-03-27T06:37:27.011Z,55.22
2023-03-27T06:39:56.199Z,55.21
2023-03-27T06:42:24.131Z,55.58
2023-03-27T06:45:01.612Z,55.71
2023-03-27T06:47:54.656Z,55.26
2023-03-27T06:50:41.522Z,54.18
2023-03-27T06:53:23.583Z,54.46
2023-03-27T06:55:54.890Z,53.49
2023-03-27T06:58:24.193Z,52.83
2023-03-27T07:00:52.256Z,53.37
2023-03-27T07:03:25.252Z,52.69
2023-03-27T07:06:21.687Z,53.43
2023-03-27T07:08:54.141Z,53.06
2023-03-27T07:11:21.212Z,53.86
2023-03-27T07:13:55.238Z,53.28
2023-03-27T07:16:36.001Z,52.44
2023-03-27T07:19:08.142Z,52.38
2023-03-27T07:21:48.636Z,51.56
2023-03-27T07:24:31.162Z,51.50
2023-03-27T07:27:04.330Z,51.08
2023-03-27T07:29:33.680Z,51.63
2023-03-27T07:32:06.026Z,51.82
2023-03-27T07:34:40.754Z,52.57
2023-03-27T07:37:27.556Z,53.35
2023-03-27T07:40:13.261Z,52.36
2023-03-27T07:42:45.700Z,53.03
2023-03-27T07:45:20.524Z,52.80
2023-03-27T07:47:49.538Z,52.66
2023-03-27T07:50:19.704Z,52.99
2023-03-27T07:52:47.856Z,52.68
2023-03-27T07:55:18.152Z,52.49
2023-03-27T07:58:02.492Z,52.67
2023-03-27T08:00:33.382Z,52.70
2023-03-27T08:03:11.250Z,52.90
2023-03-27T08:05:43.404Z,51.97
2023-03-27T08:08:13.414Z,51.17
2023-03-27T08:10:45.625Z,51.57
2023-03-27T08:13:13.404Z,49.92
2023-03-27T08:15:40.686Z,50.18
2023-03-27T08:18:19.545Z,49.97
2023-03-27T08:20:46.687Z,50.69
2023-03-27T08:23:14.343Z,49.53
2023-03-27T08:26:00.040Z,49.64
2023-03-27T08:28:32.940Z,49.96
2023-03-27T08:31:02.653Z,49.53
2023-03-27T08:33:34.350Z,49.42
2023-03-27T08:36:01.721Z,49.36
2023-03-27T08:38:29.337Z,49.45
2023-03-27T08:41:06.621Z,48.82
2023-03-27T08:43:44.197Z,48.44
2023-03-27T08:46:22.634Z,48.53
2023-03-27T08:48:57.411Z,48.49
2023-03-27T08:51:33.801Z,47.96
2023-03-27T08:54:06.561Z,48.81
2023-03-27T08:56:34.113Z,48.98
2023-03-27T08:59:02.146Z,48.78
2023-03-27T09:01:38.889Z,49.38
2023-03-27T09:04:29.150Z,49.40
2023-03-27T09:07:08.981Z,49.11
2023-03-27T09:10:09.218Z,48.85
2023-03-27T09:13:11.826Z,48.87
2023-03-27T09:16:03.130Z,49.04
2023-03-27T09:18:33.298Z,48.62
2023-03-27T09:21:39.899Z,48.91
2023-03-27T09:24:25.717Z,48.74
2023-03-27T09:27:35.241Z,49.04
2023-03-27T09:30:31.457Z,49.49
2023-03-27T09:33:07.054Z,49.52
2023-03-27T09:35:35.358Z,49.02
2023-03-27T09:38:21.954Z,48.92
2023-03-27T09:41:07.719Z,49.34
2023-03-27T09:43:59.531Z,48.75
2023-03-27T09:46:28.447Z,48.83
2023-03-27T09:49:11.949Z,48.36
2023-03-27T09:51:42.082Z,47.36
2023-03-27T09:54:27.476Z,47.82
2023-03-27T09:56:57.986Z,47.23
2023-03-27T09:59:29.167Z,47.22
2023-03-27T10:02:22.688Z,46.92
2023-03-27T10:05:02.970Z,46.71
2023-03-27T10:07:38.145Z,46.59
2023-03-27T10:10:21.431Z,46.46
2023-03-27T10:13:11.494Z,46.96
2023-03-27T10:15:43.947Z,47.47
2023-03-27T10:18:27.259Z,46.98
2023-03-27T10:21:11.894Z,47.41
2023-03-27T10:23:47.722Z,47.48
2023-03-27T10:26:27.873Z,46.52
2023-03-27T10:29:00.957Z,46.32
2023-03-27T10:31:37.671Z,46.79
2023-03-27T10:34:33.147Z,46.08
2023-03-27T10:37:30.443Z,46.05
2023-03-27T10:40:35.046Z,44.76
2023-03-27T10:43:16.968Z,44.03
2023-03-27T10:45:53.833Z,44.18
2023-03-27T10:48:45.447Z,43.84
2023-03-27T10:51:50.638Z,44.00
2023-03-27T10:55:03.300Z,43.98
2023-03-27T10:57:33.080Z,44.19
2023-03-27T11:00:08.914Z,44.46
2023-03-27T11:02:57.660Z,43.44
2023-03-27T11:05:36.336Z,43.22
2023-03-27T11:08:15.747Z,43.24
2023-03-27T11:10:45.500Z,43.62
2023-03-27T11:13:23.801Z,43.87
2023-03-27T11:16:01.481Z,43.38
2023-03-27T11:18:54.653Z,42.88
2023-03-27T11:21:36.745Z,42.44
2023-03-27T11:24:09.758Z,42.25
2023-03-27T11:27:16.967Z,42.08
2023-03-27T11:29:58.189Z,42.46
2023-03-27T11:32:42.347Z,41.73
2023-03-27T11:35:17.388Z,40.80
2023-03-27T11:38:12.924Z,40.16
2023-03-27T11:40:47.961Z,40.04
2023-03-27T11:43:20.134Z,40.64
2023-03-27T11:45:50.745Z,41.45
2023-03-27T11:48:46.749Z,41.42
2023-03-27T11:51:41.932Z,41.93
2023-03-27T11:54:16.920Z,41.79
2023-03-27T11:56:58.278Z,42.56
2023-03-27T12:00:23.325Z,43.61
2023-03-27T12:03:24.561Z,44.25
2023-03-27T12:06:12.462Z,44.68
2023-03-27T12:08:48.445Z,44.20
2023-03-27T12:11:17.778Z,44.87
2023-03-27T12:14:18.452Z,44.26
2023-03-27T12:17:18.224Z,43.78
2023-03-27T12:20:11.072Z,44.66
2023-03-27T12:23:06.216Z,44.99
2023-03-27T12:26:37.594Z,47.04
2023-03-27T12:29:47.654Z,47.53
2023-03-27T12:32:29.864Z,47.66
2023-03-27T12:35:09.837Z,47.15
2023-03-27T12:38:11.104Z,46.95
2023-03-27T12:41:17.654Z,47.65
2023-03-27T12:44:16.330Z,47.85
2023-03-27T12:47:27.135Z,48.13
2023-03-27T12:50:20.406Z,47.94
2023-03-27T12:52:51.369Z,48.24
2023-03-27T12:55:23.988Z,48.56
2023-03-27T12:57:57.476Z,48.57
2023-03-27T13:00:54.216Z,48.64
2023-03-27T13:04:02.051Z,48.69
2023-03-27T13:06:42.786Z,48.81
2023-03-27T13:09:28.698Z,49.61
2023-03-27T13:12:07.440Z,49.86
2023-03-27T13:14:40.441Z,49.60
2023-03-27T13:17:36.940Z,49.83
2023-03-27T13:20:26.374Z,50.02
2023-03-27T13:23:07.622Z,49.92
2023-03-27T13:26:08.101Z,49.85
2023-03-27T13:28:43.679Z,50.01
2023-03-27T13:31:33.562Z,49.89
2023-03-27T13:34:42.812Z,49.42
2023-03-27T13:37:15.884Z,49.59
2023-03-27T13:39:56.196Z,49.38
2023-03-27T13:42:39.581Z,48.91
2023-03-27T13:45:25.239Z,48.58
2023-03-27T13:48:16.910Z,48.45
2023-03-27T13:51:06.731Z,48.85
2023-03-27T13:54:08.126Z,48.82
2023-03-27T13:56:52.551Z,49.52
2023-03-27T13:59:49.343Z,49.90
2023-03-27T14:02:56.543Z,50.17
2023-03-27T14:06:01.786Z,50.83
2023-03-27T14:09:11.079Z,50.60
2023-03-27T14:12:14.592Z,50.95
2023-03-27T14:15:19.029Z,51.16
2023-03-27T14:18:29.977Z,51.29
2023-03-27T14:21:00.437Z,51.52
2023-03-27T14:24:06.352Z,51.25
2023-03-27T14:26:43.332Z,51.09
2023-03-27T14:29:12.890Z,52.00
2023-03-27T14:31:47.944Z,51.59
2023-03-27T14:34:25.079Z,51.39
2023-03-27T14:37:33.658Z,51.78
2023-03-27T14:40:34.815Z,51.64
2023-03-27T14:43:07.155Z,51.45
2023-03-27T14:45:41.907Z,51.24
2023-03-27T14:48:20.191Z,50.93
2023-03-27T14:50:54.363Z,51.19
2023-03-27T14:53:26.821Z,50.36
2023-03-27T14:56:29.429Z,50.67
2023-03-27T14:59:02.497Z,50.67
2023-03-27T15:01:43.129Z,50.49
2023-03-27T15:04:14.205Z,50.71
2023-03-27T15:06:43.198Z,50.84
2023-03-27T15:09:18.376Z,51.14
2023-03-27T15:12:04.562Z,51.67
2023-03-27T15:14:33.400Z,51.68
2023-03-27T15:17:07.097Z,51.94
2023-03-27T15:19:43.178Z,52.33
2023-03-27T15:22:34.174Z,52.47
2023-03-27T15:25:15.582Z,52.47
2023-03-27T15:27:46.918Z,52.65
2023-03-27T15:30:37.036Z,53.09
2023-03-27T15:33:15.020Z,53.13
2023-03-27T15:35:51.432Z,53.31
2023-03-27T15:38:27.018Z,53.88
2023-03-27T15:41:19.239Z,53.81
2023-03-27T15:43:46.333Z,54.16
2023-03-27T15:46:17.214Z,54.06
2023-03-27T15:48:48.416Z,54.68
2023-03-27T15:51:18.650Z,54.59
2023-03-27T15:53:48.719Z,54.39
2023-03-27T15:56:40.720Z,54.53
2023-03-27T15:59:11.240Z,54.68
2023-03-27T16:01:41.006Z,54.66
2023-03-27T16:04:13.898Z,54.78
2023-03-27T16:06:44.434Z,55.06
2023-03-27T16:09:30.711Z,54.96
2023-03-27T16:11:58.873Z,55.04
2023-03-27T16:14:41.035Z,55.00
2023-03-27T16:17:18.422Z,55.27
2023-03-27T16:19:54.803Z,56.13
2023-03-27T16:22:24.535Z,56.21
2023-03-27T16:24:54.646Z,55.55
2023-03-27T16:27:25.281Z,56.38
2023-03-27T16:29:53.610Z,55.62
2023-03-27T16:32:22.454Z,56.36
2023-03-27T16:34:50.984Z,56.28
2023-03-27T16:37:24.766Z,56.20
2023-03-27T16:39:52.470Z,56.44
2023-03-27T16:42:25.792Z,56.62
2023-03-27T16:44:53.891Z,56.74
2023-03-27T16:47:21.273Z,56.51
2023-03-27T16:49:59.331Z,56.65
2023-03-27T16:52:34.747Z,56.97
2023-03-27T16:55:01.740Z,57.35
2023-03-27T16:57:28.823Z,57.73
2023-03-27T16:59:55.871Z,57.85
2023-03-27T17:02:22.904Z,57.80
2023-03-27T17:04:49.775Z,58.33
2023-03-27T17:07:17.396Z,58.84
2023-03-27T17:09:44.270Z,58.97
2023-03-27T17:12:11.220Z,59.13
2023-03-27T17:14:38.150Z,59.65
2023-03-27T17:17:05.140Z,59.07
2023-03-27T17:19:33.311Z,59.51
2023-03-27T17:22:03.270Z,59.82
2023-03-27T17:24:30.217Z,60.72
2023-03-27T17:26:59.072Z,60.71
2023-03-27T17:29:28.304Z,60.83
2023-03-27T17:31:57.911Z,60.70
2023-03-27T17:34:41.635Z,60.77
2023-03-27T17:37:10.956Z,61.11
2023-03-27T17:39:37.900Z,60.55
2023-03-27T17:42:07.427Z,60.58
2023-03-27T17:44:34.437Z,61.12
2023-03-27T17:47:01.376Z,60.94
2023-03-27T17:49:28.372Z,60.67
2023-03-27T17:51:55.323Z,61.62
2023-03-27T17:54:27.087Z,61.69
2023-03-27T17:56:54.440Z,61.34
2023-03-27T17:59:21.492Z,61.16
2023-03-27T18:01:49.740Z,61.85
2023-03-27T18:04:18.254Z,61.98
2023-03-27T18:06:45.474Z,61.41
2023-03-27T18:09:13.849Z,62.12
2023-03-27T18:11:41.618Z,61.49
2023-03-27T18:14:09.836Z,62.08
2023-03-27T18:16:36.876Z,62.47
2023-03-27T18:19:03.839Z,62.29
2023-03-27T18:21:31.852Z,62.75
2023-03-27T18:23:58.685Z,63.04
2023-03-27T18:26:26.077Z,63.12
2023-03-27T18:28:53.047Z,63.66
2023-03-27T18:31:20.139Z,63.44
2023-03-27T18:33:47.123Z,63.32
2023-03-27T18:36:14.373Z,63.16
2023-03-27T18:38:42.277Z,63.01
2023-03-27T18:41:10.491Z,63.56
2023-03-27T18:43:37.910Z,63.38
2023-03-27T18:46:06.894Z,63.31
2023-03-27T18:48:35.322Z,63.37
2023-03-27T18:51:17.214Z,63.19
2023-03-27T18:53:45.415Z,63.24
2023-03-27T18:56:12.566Z,63.50
2023-03-27T18:58:39.687Z,63.32
2023-03-27T19:01:12.485Z,63.19
2023-03-27T19:03:41.000Z,63.54
2023-03-27T19:06:10.912Z,63.10
2023-03-27T19:08:40.183Z,63.16
2023-03-27T19:11:10.087Z,63.36
2023-03-27T19:13:55.622Z,62.67
2023-03-27T19:16:29.722Z,63.34
2023-03-27T19:19:22.383Z,63.51
2023-03-27T19:22:16.808Z,62.88
2023-03-27T19:24:49.504Z,62.82
2023-03-27T19:27:23.594Z,62.88
2023-03-27T19:29:52.886Z,63.32
2023-03-27T19:32:20.503Z,63.49
2023-03-27T19:34:47.701Z,63.11
2023-03-27T19:37:14.579Z,63.47
2023-03-27T19:39:41.550Z,63.23
2023-03-27T19:42:08.515Z,62.62
2023-03-27T19:44:37.300Z,62.30
2023-03-27T19:47:05.088Z,62.33
2023-03-27T19:49:32.280Z,61.98
2023-03-27T19:52:19.727Z,61.42
2023-03-27T19:54:47.157Z,61.13
2023-03-27T19:57:14.273Z,61.52
2023-03-27T19:59:41.406Z,61.38
2023-03-27T20:02:11.978Z,61.52
2023-03-27T20:04:39.255Z,61.94
2023-03-27T20:07:06.430Z,62.21
2023-03-27T20:09:34.637Z,62.07
2023-03-27T20:12:02.168Z,62.07
2023-03-27T20:14:30.071Z,62.69
2023-03-27T20:16:58.582Z,62.19
2023-03-27T20:19:27.036Z,62.05
2023-03-27T20:21:54.180Z,62.54
2023-03-27T20:24:21.264Z,62.36
2023-03-27T20:26:54.773Z,63.26
2023-03-27T20:29:24.700Z,63.00
2023-03-27T20:31:51.978Z,63.38
2023-03-27T20:34:19.199Z,62.88
2023-03-27T20:36:46.440Z,62.80
2023-03-27T20:39:31.516Z,62.19
2023-03-27T20:41:58.458Z,62.45
2023-03-27T20:44:26.605Z,62.34
2023-03-27T20:46:56.975Z,61.67
2023-03-27T20:51:54.268Z,61.71
2023-03-27T20:54:21.230Z,61.50
2023-03-27T20:56:48.236Z,61.88
2023-03-27T20:59:17.674Z,61.69
2023-03-27T21:01:44.601Z,61.42
2023-03-27T21:04:13.907Z,61.79
2023-03-27T21:06:42.610Z,62.07
2023-03-27T21:09:10.412Z,61.88
2023-03-27T21:11:39.037Z,61.99
2023-03-27T21:14:06.138Z,62.13
2023-03-27T21:16:33.186Z,61.96
2023-03-27T21:19:00.389Z,61.61
2023-03-27T21:21:32.523Z,61.87
2023-03-27T21:23:59.624Z,61.69
2023-03-27T21:26:26.608Z,61.73
2023-03-27T21:28:55.137Z,61.36
2023-03-27T21:31:22.105Z,61.44
2023-03-27T21:33:49.119Z,61.54
2023-03-27T21:36:16.260Z,61.60
2023-03-27T21:38:43.453Z,61.11
2023-03-27T21:41:14.182Z,61.22
2023-03-27T21:43:41.420Z,60.92
2023-03-27T21:46:08.474Z,61.69
2023-03-27T21:48:35.552Z,61.99
2023-03-27T21:51:05.718Z,61.78
2023-03-27T21:53:36.495Z,61.96
2023-03-27T21:56:03.568Z,61.99
2023-03-27T21:58:30.615Z,62.59
2023-03-27T22:00:58.790Z,62.56
2023-03-27T22:03:27.819Z,62.28
2023-03-27T22:06:08.363Z,62.91
2023-03-27T22:08:38.840Z,62.25
2023-03-27T22:11:06.021Z,62.10
2023-03-27T22:13:39.378Z,62.70
2023-03-27T22:16:11.980Z,62.24
2023-03-27T22:18:39.710Z,61.80
2023-03-27T22:21:23.520Z,62.25
2023-03-27T22:23:51.236Z,62.26
2023-03-27T22:26:23.808Z,61.97
2023-03-27T22:28:51.542Z,62.13
2023-03-27T22:31:19.791Z,62.33
2023-03-27T22:33:47.348Z,62.47
2023-03-27T22:36:14.498Z,62.38
2023-03-27T22:38:42.394Z,63.20
2023-03-27T22:41:11.394Z,63.41
2023-03-27T22:43:39.043Z,63.44
2023-03-27T22:46:14.459Z,63.61
2023-03-27T22:48:41.884Z,64.08
2023-03-27T22:51:11.386Z,63.67
2023-03-27T22:53:38.710Z,63.63
2023-03-27T22:56:07.088Z,62.86
2023-03-27T22:58:34.343Z,62.85
2023-03-27T23:01:01.359Z,62.83
2023-03-27T23:03:28.506Z,62.98
2023-03-27T23:05:55.561Z,62.76
2023-03-27T23:08:24.758Z,63.32
2023-03-27T23:11:02.681Z,64.04
2023-03-27T23:13:31.633Z,63.61
2023-03-27T23:15:59.292Z,63.52
2023-03-27T23:18:26.737Z,63.24
2023-03-27T23:20:59.069Z,63.20
2023-03-27T23:23:27.360Z,63.03
2023-03-27T23:25:54.836Z,63.26
2023-03-27T23:28:22.078Z,62.61
2023-03-27T23:31:02.197Z,63.04
2023-03-27T23:33:34.896Z,62.95
2023-03-27T23:36:08.440Z,63.26
2023-03-27T23:38:36.258Z,63.23
2023-03-27T23:41:03.818Z,63.03
2023-03-27T23:43:31.643Z,63.53
2023-03-27T23:45:59.244Z,64.24
2023-03-27T23:48:30.815Z,64.26
2023-03-27T23:50:58.252Z,63.89
2023-03-27T23:53:26.880Z,63.30
2023-03-27T23:55:54.942Z,62.87
2023-03-27T23:58:22.880Z,63.59
